createdAt,value
2022-11-29T00:00:49.185Z,101115.97
2022-11-29T00:01:52.070Z,101107.93
2022-11-29T00:02:54.445Z,101118.56
2022-11-29T00:03:57.948Z,101111.42
2022-11-29T00:05:00.085Z,101113.16
2022-11-29T00:06:06.325Z,101115.75
2022-11-29T00:07:08.459Z,101119.29
2022-11-29T00:08:10.464Z,101114.79
2022-11-29T00:09:12.545Z,101116.53
2022-11-29T00:10:15.060Z,101115.59
2022-11-29T00:11:23.282Z,101111.09
2022-11-29T00:12:25.404Z,101114.66
2022-11-29T00:13:27.676Z,101114.58
2022-11-29T00:14:29.876Z,101109.22
2022-11-29T00:15:37.031Z,101116.28
2022-11-29T00:16:40.057Z,101110.92
2022-11-29T00:17:43.043Z,101114.49
2022-11-29T00:18:45.133Z,101118.91
2022-11-29T00:19:47.199Z,101103.69
2022-11-29T00:20:49.285Z,101106.38
2022-11-29T00:21:51.371Z,101117.01
2022-11-29T00:22:53.559Z,101105.44
2022-11-29T00:23:55.528Z,101104.47
2022-11-29T00:24:57.633Z,101100.93
2022-11-29T00:26:06.459Z,101101.78
2022-11-29T00:27:08.580Z,101108.03
2022-11-29T00:28:11.631Z,101107.09
2022-11-29T00:29:14.056Z,101097.23
2022-11-29T00:30:17.689Z,101107.95
2022-11-29T00:31:21.992Z,101102.59
2022-11-29T00:32:24.632Z,101108.80
2022-11-29T00:33:26.615Z,101112.38
2022-11-29T00:34:28.954Z,101107.02
2022-11-29T00:35:32.155Z,101104.25
2022-11-29T00:36:36.279Z,101108.72
2022-11-29T00:37:39.637Z,101106.05
2022-11-29T00:38:41.688Z,101109.61
2022-11-29T00:39:43.788Z,101114.97
2022-11-29T00:40:51.154Z,101106.93
2022-11-29T00:41:53.301Z,101107.78
2022-11-29T00:42:55.388Z,101105.11
2022-11-29T00:43:57.461Z,101108.64
2022-11-29T00:44:59.549Z,101103.23
2022-11-29T00:46:01.654Z,101111.27
2022-11-29T00:47:03.816Z,101103.23
2022-11-29T00:48:06.165Z,101108.51
2022-11-29T00:49:09.219Z,101099.58
2022-11-29T00:50:12.289Z,101100.47
2022-11-29T00:51:14.472Z,101108.42
2022-11-29T00:52:16.573Z,101107.54
2022-11-29T00:53:23.027Z,101108.42
2022-11-29T00:54:25.580Z,101105.83
2022-11-29T00:55:28.226Z,101110.30
2022-11-29T00:56:31.048Z,101110.30
2022-11-29T00:57:33.536Z,101104.94
2022-11-29T00:58:36.243Z,101112.05
2022-11-29T00:59:38.492Z,101110.30
2022-11-29T01:00:40.696Z,101128.20
2022-11-29T01:01:42.742Z,101107.70
2022-11-29T01:02:44.989Z,101115.74
2022-11-29T01:03:47.040Z,101112.20
2022-11-29T01:04:49.418Z,101108.64
2022-11-29T01:05:51.419Z,101111.32
2022-11-29T01:06:53.511Z,101117.65
2022-11-29T01:07:55.638Z,101113.23
2022-11-29T01:08:57.891Z,101118.59
2022-11-29T01:10:00.014Z,101112.38
2022-11-29T01:12:23.750Z,101109.11
2022-11-29T01:13:25.731Z,101109.78
2022-11-29T01:14:29.250Z,101108.03
2022-11-29T01:15:31.485Z,101108.89
2022-11-29T01:16:34.932Z,101104.42
2022-11-29T01:17:37.911Z,101101.73
2022-11-29T01:18:40.414Z,101107.02
2022-11-29T01:19:47.833Z,101108.72
2022-11-29T01:20:48.564Z,101104.25
2022-11-29T01:21:50.787Z,101098.81
2022-11-29T01:22:53.344Z,101106.84
2022-11-29T01:23:55.415Z,101105.91
2022-11-29T01:24:57.486Z,101104.09
2022-11-29T01:27:15.765Z,101102.56
2022-11-29T01:28:18.861Z,101101.24
2022-11-29T01:29:20.841Z,101107.54
2022-11-29T01:30:23.810Z,101112.84
2022-11-29T01:32:41.800Z,101106.91
2022-11-29T01:33:44.668Z,101111.87
2022-11-29T01:34:47.696Z,101104.81
2022-11-29T01:35:50.833Z,101112.77
2022-11-29T01:36:52.980Z,101112.77
2022-11-29T01:37:56.133Z,101109.11
2022-11-29T01:38:59.403Z,101109.11
2022-11-29T01:40:01.546Z,101106.44
2022-11-29T01:41:07.353Z,101110.00
2022-11-29T01:43:24.722Z,101110.22
2022-11-29T01:44:30.489Z,101101.87
2022-11-29T01:45:33.110Z,101107.23
2022-11-29T01:46:38.050Z,101113.45
2022-11-29T01:47:42.136Z,101108.98
2022-11-29T01:48:45.145Z,101114.34
2022-11-29T01:49:47.505Z,101117.02
2022-11-29T01:50:49.583Z,101119.70
2022-11-29T01:52:07.671Z,101110.77
2022-11-29T01:53:10.733Z,101117.88
2022-11-29T01:54:13.427Z,101120.55
2022-11-29T01:55:15.499Z,101112.52
2022-11-29T01:56:17.956Z,101119.70
2022-11-29T01:57:20.007Z,101113.45
2022-11-29T01:58:22.548Z,101121.41
2022-11-29T01:59:25.628Z,101117.02
2022-11-29T02:00:27.819Z,101121.41
2022-11-29T02:01:30.427Z,101123.23
2022-11-29T02:02:37.339Z,101117.02
2022-11-29T02:03:39.616Z,101113.38
2022-11-29T02:04:43.241Z,101117.80
2022-11-29T02:05:50.413Z,101110.69
2022-11-29T02:06:52.578Z,101110.61
2022-11-29T02:07:55.686Z,101118.65
2022-11-29T02:08:58.400Z,101113.29
2022-11-29T02:10:00.482Z,101107.92
2022-11-29T02:11:21.655Z,101111.49
2022-11-29T02:12:30.355Z,101113.23
2022-11-29T02:13:42.496Z,101106.05
2022-11-29T02:15:14.152Z,101107.87
2022-11-29T02:17:45.731Z,101111.87
2022-11-29T02:19:05.280Z,101117.80
2022-11-29T02:20:29.805Z,101115.20
2022-11-29T02:21:55.965Z,101116.13
2022-11-29T02:23:35.043Z,101124.17
2022-11-29T02:24:44.181Z,101122.44
2022-11-29T02:26:16.186Z,101118.05
2022-11-29T02:27:44.502Z,101119.92
2022-11-29T02:29:07.101Z,101120.89
2022-11-29T02:30:18.151Z,101124.51
2022-11-29T02:31:27.052Z,101124.59
2022-11-29T02:33:02.031Z,101121.02
2022-11-29T02:34:33.147Z,101120.25
2022-11-29T02:35:55.497Z,101113.14
2022-11-29T02:37:26.045Z,101114.08
2022-11-29T02:39:08.858Z,101109.70
2022-11-29T02:40:26.581Z,101102.59
2022-11-29T02:41:50.883Z,101105.35
2022-11-29T02:43:08.586Z,101108.03
2022-11-29T02:44:23.425Z,101104.55
2022-11-29T02:45:46.154Z,101104.55
2022-11-29T02:46:57.816Z,101103.69
2022-11-29T02:48:20.424Z,101103.69
2022-11-29T02:49:35.561Z,101104.63
2022-11-29T02:50:43.987Z,101109.98
2022-11-29T02:51:49.301Z,101110.88
2022-11-29T02:55:03.527Z,101113.79
2022-11-29T02:56:35.983Z,101121.52
2022-11-29T02:57:59.926Z,101120.55
2022-11-29T02:59:35.137Z,101127.65
2022-11-29T03:00:40.296Z,101129.47
2022-11-29T03:01:52.140Z,101125.91
2022-11-29T03:03:02.252Z,101129.47
2022-11-29T03:04:08.160Z,101124.97
2022-11-29T03:05:36.950Z,101124.11
2022-11-29T03:08:14.683Z,101106.52
2022-11-29T03:09:41.707Z,101116.84
2022-11-29T03:12:21.103Z,101115.36
2022-11-29T03:14:02.202Z,101112.38
2022-11-29T03:15:17.356Z,101113.23
2022-11-29T03:16:58.404Z,101110.55
2022-11-29T03:18:36.646Z,101122.13
2022-11-29T03:20:05.469Z,101120.33
2022-11-29T03:22:35.279Z,101119.45
2022-11-29T03:23:40.642Z,101126.62
2022-11-29T03:25:10.244Z,101121.27
2022-11-29T03:26:21.053Z,101115.98
2022-11-29T03:28:52.603Z,101120.72
2022-11-29T03:29:56.414Z,101123.09
2022-11-29T03:31:06.429Z,101128.45
2022-11-29T03:32:19.122Z,101127.48
2022-11-29T03:33:34.015Z,101119.45
2022-11-29T03:35:00.846Z,101132.76
2022-11-29T03:36:10.280Z,101136.33
2022-11-29T03:37:21.249Z,101130.03
2022-11-29T03:38:29.842Z,101128.13
2022-11-29T03:39:51.142Z,101138.84
2022-11-29T03:41:32.170Z,101137.02
2022-11-29T03:44:12.480Z,101132.94
2022-11-29T03:46:49.314Z,101140.05
2022-11-29T03:48:01.113Z,101139.65
2022-11-29T03:50:52.297Z,101138.13
2022-11-29T03:51:58.081Z,101135.06
2022-11-29T03:54:29.925Z,101132.69
2022-11-29T03:55:50.757Z,101142.94
2022-11-29T03:56:55.533Z,101143.02
2022-11-29T03:58:21.391Z,101140.26
2022-11-29T03:59:45.758Z,101136.64
2022-11-29T04:00:51.660Z,101147.36
2022-11-29T04:02:00.298Z,101140.17
2022-11-29T04:03:26.041Z,101142.86
2022-11-29T04:04:45.579Z,101141.92
2022-11-29T04:05:51.733Z,101148.22
2022-11-29T04:07:24.093Z,101138.38
2022-11-29T04:08:57.579Z,101145.53
2022-11-29T04:10:35.356Z,101139.23
2022-11-29T04:12:14.956Z,101148.22
2022-11-29T04:13:36.231Z,101146.51
2022-11-29T04:14:48.196Z,101144.77
2022-11-29T04:16:11.287Z,101154.59
2022-11-29T04:17:23.112Z,101151.06
2022-11-29T04:19:04.403Z,101155.56
2022-11-29T04:21:40.120Z,101155.16
2022-11-29T04:23:02.170Z,101151.14
2022-11-29T04:24:11.793Z,101152.08
2022-11-29T04:25:40.788Z,101163.77
2022-11-29T04:27:20.492Z,101149.41
2022-11-29T04:28:35.706Z,101151.14
2022-11-29T04:30:01.568Z,101153.83
2022-11-29T04:31:24.227Z,101144.04
2022-11-29T04:32:47.163Z,101147.61
2022-11-29T04:33:59.280Z,101145.78
2022-11-29T04:35:31.816Z,101149.41
2022-11-29T04:38:09.865Z,101143.50
2022-11-29T04:39:48.027Z,101146.64
2022-11-29T04:41:08.739Z,101159.19
2022-11-29T04:42:43.909Z,101156.50
2022-11-29T04:44:12.876Z,101151.14
2022-11-29T04:45:35.412Z,101148.46
2022-11-29T04:46:50.933Z,101154.68
2022-11-29T04:48:17.950Z,101151.14
2022-11-29T04:49:44.928Z,101152.97
2022-11-29T04:51:00.279Z,101161.87
2022-11-29T04:52:36.984Z,101163.69
2022-11-29T04:53:57.653Z,101161.87
2022-11-29T04:55:27.621Z,101153.91
2022-11-29T04:56:35.354Z,101160.13
2022-11-29T04:57:53.573Z,101155.73
2022-11-29T04:58:59.747Z,101155.73
2022-11-29T05:00:10.891Z,101154.07
2022-11-29T05:01:16.857Z,101159.64
2022-11-29T05:02:39.608Z,101156.34
2022-11-29T05:04:00.520Z,101160.98
2022-11-29T05:05:30.532Z,101091.78
2022-11-29T05:06:36.448Z,101168.61
2022-11-29T05:09:44.412Z,101161.44
2022-11-29T05:10:55.191Z,101163.83
2022-11-29T05:12:07.793Z,101163.17
2022-11-29T05:13:30.047Z,101159.80
2022-11-29T05:14:57.611Z,101162.63
2022-11-29T05:16:22.334Z,101163.64
2022-11-29T05:17:43.607Z,101169.16
2022-11-29T05:18:57.761Z,101166.60
2022-11-29T05:20:19.464Z,101168.50
2022-11-29T05:21:30.916Z,101166.83
2022-11-29T05:22:36.840Z,101173.20
2022-11-29T05:23:57.872Z,101167.06
2022-11-29T05:25:32.631Z,101168.00
2022-11-29T05:26:56.574Z,101163.58
2022-11-29T05:28:11.245Z,101168.16
2022-11-29T05:29:32.349Z,101170.02
2022-11-29T05:31:06.804Z,101173.63
2022-11-29T05:32:36.285Z,101167.49
2022-11-29T05:34:03.781Z,101173.00
2022-11-29T05:35:37.362Z,101178.35
2022-11-29T05:37:17.014Z,101185.57
2022-11-29T05:38:39.416Z,101181.22
2022-11-29T05:39:54.037Z,101183.98
2022-11-29T05:42:56.088Z,101189.91
2022-11-29T05:44:35.500Z,101180.67
2022-11-29T05:45:47.717Z,101185.13
2022-11-29T05:46:55.836Z,101194.13
2022-11-29T05:48:08.412Z,101185.20
2022-11-29T05:52:22.503Z,101194.61
2022-11-29T05:53:37.963Z,101197.73
2022-11-29T11:44:51.460Z,101184.47
2022-11-29T11:45:42.106Z,101187.19
2022-11-29T11:48:13.262Z,101175.24
2022-11-29T11:49:35.208Z,101184.88
2022-11-29T11:51:58.084Z,101174.14
2022-11-29T11:53:09.113Z,101174.14
2022-11-29T11:54:14.581Z,101171.92
2022-11-29T11:55:34.590Z,101178.57
2022-11-29T11:56:37.682Z,101182.52
2022-11-29T11:57:41.886Z,101180.16
2022-11-29T11:58:49.683Z,101176.10
2022-11-29T11:59:53.222Z,101177.42
2022-11-29T12:01:05.035Z,101180.45
2022-11-29T12:02:09.550Z,101182.67
2022-11-29T13:22:04.953Z,101171.61
2022-11-29T13:23:46.213Z,101173.51
2022-11-29T13:24:45.007Z,101174.44
2022-11-29T13:25:48.718Z,101175.37
2022-11-29T13:26:51.620Z,101173.58
2022-11-29T13:29:16.763Z,101164.23
2022-11-29T13:30:20.037Z,101168.27
2022-11-29T13:31:23.576Z,101173.58
2022-11-29T13:32:39.802Z,101179.80
2022-11-29T13:33:58.170Z,101176.11
2022-11-29T13:36:38.976Z,101178.20
2022-11-29T13:38:04.588Z,101179.48
2022-11-29T13:39:43.019Z,101184.80
2022-11-29T13:40:55.687Z,101185.73
2022-11-29T13:42:04.593Z,101187.52
2022-11-29T13:43:17.258Z,101186.66
2022-11-29T13:44:35.997Z,101185.80
2022-11-29T13:46:11.140Z,101192.95
2022-11-29T13:47:16.120Z,101195.70
2022-11-29T13:48:33.959Z,101195.86
2022-11-29T13:49:58.671Z,101195.12
2022-11-29T13:51:30.031Z,101192.52
2022-11-29T13:53:49.569Z,101188.41
2022-11-29T13:55:14.962Z,101196.79
2022-11-29T13:58:18.730Z,101191.59
2022-11-29T13:59:08.120Z,101199.04
2022-11-29T14:00:33.936Z,101191.70
2022-11-29T14:01:47.460Z,101201.41
2022-11-29T14:02:51.443Z,101203.08
2022-11-29T14:04:02.893Z,101201.13
2022-11-29T14:06:21.516Z,101199.16
2022-11-29T14:07:24.200Z,101195.55
2022-11-29T14:10:06.276Z,101195.39
2022-11-29T14:11:16.028Z,101194.53
2022-11-29T14:12:31.241Z,101191.94
2022-11-29T14:14:08.263Z,101193.80
2022-11-29T14:15:22.310Z,101201.99
2022-11-29T14:16:37.331Z,101203.00
2022-11-29T14:17:52.053Z,101195.94
2022-11-29T14:19:10.700Z,101193.30
2022-11-29T14:20:25.916Z,101196.05
2022-11-29T14:21:48.688Z,101196.13
2022-11-29T14:23:10.410Z,101206.06
2022-11-29T14:24:33.546Z,101195.55
2022-11-29T14:26:55.594Z,101199.63
2022-11-29T14:28:01.469Z,101204.66
2022-11-29T14:29:03.809Z,101200.35
2022-11-29T14:32:04.360Z,101203.54
2022-11-29T14:33:44.100Z,101204.03
2022-11-29T14:34:48.219Z,101206.72
2022-11-29T14:37:45.725Z,101205.48
2022-11-29T14:40:43.698Z,101186.89
2022-11-29T18:18:04.805Z,101229.00
2022-11-29T18:19:09.873Z,101231.95
2022-11-29T18:20:12.247Z,101228.28
2022-11-29T18:21:14.360Z,101226.34
2022-11-29T18:22:16.462Z,101233.16
2022-11-29T18:23:18.576Z,101223.98
2022-11-29T18:24:21.653Z,101231.66
2022-11-29T18:25:38.892Z,101226.06
2022-11-29T18:26:28.368Z,101222.09
2022-11-29T18:27:30.448Z,101228.84
2022-11-29T18:28:34.205Z,101223.22
2022-11-29T18:29:39.303Z,101224.63
2022-11-29T18:30:42.518Z,101222.55
2022-11-29T18:31:44.789Z,101220.44
2022-11-29T18:32:46.897Z,101221.88
2022-11-29T18:33:51.625Z,101216.25
2022-11-29T18:34:53.996Z,101213.33
2022-11-29T18:36:01.610Z,101211.28
2022-11-29T18:37:09.901Z,101217.27
2022-11-29T18:38:16.015Z,101224.11
2022-11-29T18:39:19.284Z,101222.16
2022-11-29T18:40:21.399Z,101214.92
2022-11-29T18:41:25.293Z,101212.92
2022-11-29T18:42:27.482Z,101218.05
2022-11-29T18:43:29.826Z,101222.41
2022-11-29T18:44:31.910Z,101223.08
2022-11-29T18:45:40.073Z,101218.54
2022-11-29T18:46:43.749Z,101220.93
2022-11-29T18:47:47.126Z,101233.83
2022-11-29T18:48:49.263Z,101220.93
2022-11-29T18:49:52.485Z,101225.00
2022-11-29T18:50:54.635Z,101223.75
2022-11-29T18:51:57.877Z,101218.91
2022-11-29T18:53:00.133Z,101221.20
2022-11-29T18:54:03.260Z,101226.22
2022-11-29T18:55:06.598Z,101226.80
2022-11-29T18:56:13.554Z,101230.02
2022-11-29T18:57:16.779Z,101227.05
2022-11-29T18:58:19.188Z,101232.05
2022-11-29T18:59:21.532Z,101224.64
2022-11-29T19:00:23.831Z,101223.50
2022-11-29T19:01:28.855Z,101224.97
2022-11-29T19:02:32.049Z,101222.97
2022-11-29T19:03:35.037Z,101219.16
2022-11-29T19:04:37.066Z,101226.86
2022-11-29T19:05:39.133Z,101223.11
2022-11-29T19:06:41.451Z,101231.66
2022-11-29T19:07:43.581Z,101224.31
2022-11-29T19:08:45.936Z,101222.30
2022-11-29T19:09:48.924Z,101222.97
2022-11-29T19:10:51.870Z,101220.73
2022-11-29T19:11:54.105Z,101220.73
2022-11-29T19:12:57.132Z,101222.34
2022-11-29T19:15:16.855Z,101230.31
2022-11-29T19:16:19.005Z,101227.05
2022-11-29T19:17:22.247Z,101226.90
2022-11-29T19:18:25.428Z,101227.64
2022-11-29T19:19:27.955Z,101227.48
2022-11-29T19:20:34.393Z,101228.11
2022-11-29T19:21:37.296Z,101228.11
2022-11-29T19:22:40.230Z,101221.75
2022-11-29T19:23:42.839Z,101223.42
2022-11-29T19:24:45.201Z,101219.73
2022-11-29T19:25:47.528Z,101218.72
2022-11-29T19:26:50.775Z,101225.74
2022-11-29T19:27:52.910Z,101224.77
2022-11-29T19:28:54.998Z,101225.52
2022-11-29T19:29:58.646Z,101222.75
2022-11-29T19:31:00.871Z,101217.23
2022-11-29T19:32:04.215Z,101214.48
2022-11-29T19:33:06.358Z,101220.61
2022-11-29T19:34:09.675Z,101226.83
2022-11-29T19:35:14.134Z,101220.45
2022-11-29T19:36:18.709Z,101212.33
2022-11-29T19:37:21.747Z,101220.33
2022-11-29T19:38:23.834Z,101217.57
2022-11-29T19:39:26.166Z,101212.13
2022-11-29T19:40:28.743Z,101218.19
2022-11-29T19:43:04.011Z,101215.80
2022-11-29T19:44:08.259Z,101214.41
2022-11-29T19:45:18.887Z,101216.16
2022-11-29T19:46:18.503Z,101212.55
2022-11-29T19:47:21.393Z,101210.64
2022-11-29T19:48:24.065Z,101213.24
2022-11-29T19:49:26.177Z,101211.45
2022-11-29T19:50:28.541Z,101214.05
2022-11-29T19:51:31.468Z,101220.19
2022-11-29T19:52:34.671Z,101213.89
2022-11-29T19:53:37.330Z,101220.06
2022-11-29T19:54:39.524Z,101216.41
2022-11-29T19:55:44.101Z,101224.37
2022-11-29T19:56:45.726Z,101210.97
2022-11-29T19:57:47.817Z,101220.67
2022-11-29T19:58:50.092Z,101214.38
2022-11-29T19:59:52.177Z,101218.80
2022-11-29T20:00:56.113Z,101222.34
2022-11-29T20:01:58.952Z,101219.58
2022-11-29T20:03:02.390Z,101222.25
2022-11-29T20:04:04.671Z,101219.49
2022-11-29T20:05:08.222Z,101223.92
2022-11-29T20:06:11.715Z,101216.73
2022-11-29T20:07:14.076Z,101225.66
2022-11-29T20:08:21.329Z,101225.66
2022-11-29T20:09:21.301Z,101223.84
2022-11-29T20:10:25.430Z,101227.41
2022-11-29T20:11:27.583Z,101221.08
2022-11-29T20:12:29.695Z,101231.72
2022-11-29T20:13:32.447Z,101228.18
2022-11-29T20:14:34.593Z,101223.59
2022-11-29T20:15:36.744Z,101229.84
2022-11-29T20:16:40.137Z,101230.70
2022-11-29T20:17:43.192Z,101225.25
2022-11-29T20:18:50.655Z,101230.62
2022-11-29T20:19:52.701Z,101226.14
2022-11-29T20:20:54.928Z,101224.32
2022-11-29T20:21:57.557Z,101225.17
2022-11-29T20:23:00.127Z,101222.45
2022-11-29T20:24:05.566Z,101217.94
2022-11-29T20:25:09.834Z,101220.62
2022-11-29T20:26:17.945Z,101224.16
2022-11-29T20:27:22.334Z,101227.73
2022-11-29T20:28:26.789Z,101221.47
2022-11-29T20:29:29.462Z,101222.36
2022-11-29T20:30:33.413Z,101217.86
2022-11-29T20:31:37.889Z,101219.59
2022-11-29T20:32:40.401Z,101224.08
2022-11-29T20:33:43.080Z,101224.08
2022-11-29T20:34:47.244Z,101222.28
2022-11-29T20:37:23.098Z,101222.51
2022-11-29T20:38:32.060Z,101221.18
2022-11-29T20:41:02.717Z,101220.69
2022-11-29T20:42:21.095Z,101224.80
2022-11-29T20:43:42.493Z,101229.39
2022-11-29T20:44:55.178Z,101225.17
2022-11-29T20:45:59.438Z,101223.67
2022-11-29T20:48:45.296Z,101222.98
2022-11-29T20:49:48.684Z,101231.72
2022-11-29T20:50:58.208Z,101229.40
2022-11-29T20:52:02.650Z,101228.70
2022-11-29T20:53:30.279Z,101226.31
2022-11-29T20:54:32.710Z,101230.00
2022-11-29T20:55:34.834Z,101221.27
2022-11-29T20:56:36.906Z,101225.81
2022-11-29T20:57:39.500Z,101222.35
2022-11-29T20:58:42.037Z,101223.36
2022-11-29T20:59:45.815Z,101228.77
2022-11-29T21:00:48.215Z,101231.52
2022-11-29T21:01:50.434Z,101228.92
2022-11-29T21:02:53.121Z,101222.75
2022-11-29T21:03:55.350Z,101229.13
2022-11-29T21:04:57.671Z,101223.84
2022-11-29T21:06:03.859Z,101226.59
2022-11-29T21:07:06.001Z,101225.86
2022-11-29T21:08:08.992Z,101231.22
2022-11-29T21:09:11.218Z,101233.98
2022-11-29T21:10:13.320Z,101231.45
2022-11-29T21:11:16.278Z,101228.85
2022-11-29T21:12:20.409Z,101223.57
2022-11-29T21:13:23.248Z,101226.33
2022-11-29T21:14:26.003Z,101227.26
2022-11-29T21:15:29.831Z,101219.30
2022-11-29T21:16:32.729Z,101221.13
2022-11-29T21:17:35.816Z,101216.70
2022-11-29T21:18:38.683Z,101218.56
2022-11-29T21:19:41.608Z,101219.45
2022-11-29T21:20:43.861Z,101221.31
2022-11-29T21:21:49.735Z,101220.38
2022-11-29T21:23:13.561Z,101218.64
2022-11-29T21:24:39.172Z,101225.89
2022-11-29T21:25:51.278Z,101220.61
2022-11-29T21:26:54.649Z,101219.72
2022-11-29T21:27:58.355Z,101223.36
2022-11-29T21:29:13.418Z,101219.02
2022-11-29T21:30:20.609Z,101219.95
2022-11-29T21:31:24.295Z,101220.95
2022-11-29T21:32:27.119Z,101221.81
2022-11-29T21:33:32.961Z,101216.53
2022-11-29T21:34:35.647Z,101213.93
2022-11-29T21:35:38.572Z,101219.36
2022-11-29T21:36:40.837Z,101215.83
2022-11-29T21:37:43.979Z,101216.69
2022-11-29T21:38:49.745Z,101212.22
2022-11-29T21:39:51.769Z,101218.51
2022-11-29T21:40:54.860Z,101218.51
2022-11-29T21:41:56.938Z,101214.01
2022-11-29T21:42:59.555Z,101219.44
2022-11-29T21:44:08.981Z,101217.69
2022-11-29T21:45:11.810Z,101220.44
2022-11-29T21:46:10.792Z,101219.59
2022-11-29T21:47:14.291Z,101216.91
2022-11-29T21:48:16.438Z,101218.70
2022-11-29T21:49:18.525Z,101218.70
2022-11-29T21:50:20.723Z,101211.62
2022-11-29T21:51:22.941Z,101214.30
2022-11-29T21:52:25.937Z,101215.23
2022-11-29T21:53:28.144Z,101215.23
2022-11-29T21:54:30.148Z,101204.53
2022-11-29T21:55:32.645Z,101204.53
2022-11-29T21:56:35.079Z,101203.67
2022-11-29T21:57:37.155Z,101208.06
2022-11-29T21:58:39.339Z,101213.49
2022-11-29T21:59:41.442Z,101211.70
2022-11-29T22:00:43.551Z,101208.14
2022-11-29T22:01:45.746Z,101209.96
2022-11-29T22:02:49.066Z,101208.14
2022-11-29T22:03:52.329Z,101205.47
2022-11-29T22:04:54.878Z,101206.42
2022-11-29T22:06:05.249Z,101209.96
2022-11-29T22:07:07.453Z,101211.78
2022-11-29T22:08:09.901Z,101217.06
2022-11-29T22:09:12.295Z,101212.64
2022-11-29T22:10:14.617Z,101208.22
2022-11-29T22:11:20.133Z,101209.14
2022-11-29T22:12:37.512Z,101213.56
2022-11-29T22:13:26.739Z,101214.50
2022-11-29T22:14:28.810Z,101209.14
2022-11-29T22:15:31.288Z,101210.97
2022-11-29T22:16:33.467Z,101212.78
2022-11-29T22:17:36.696Z,101211.89
2022-11-29T22:18:39.723Z,101209.22
2022-11-29T22:19:42.182Z,101203.87
2022-11-29T22:20:44.479Z,101204.75
2022-11-29T22:21:48.445Z,101210.97
2022-11-29T22:22:54.479Z,101210.11
2022-11-29T22:23:54.520Z,101209.22
2022-11-29T22:24:57.056Z,101204.75
2022-11-29T22:26:05.939Z,101204.75
2022-11-29T22:27:08.060Z,101203.87
2022-11-29T22:28:10.211Z,101207.43
2022-11-29T22:29:12.858Z,101207.43
2022-11-29T22:30:15.506Z,101203.94
2022-11-29T22:31:17.592Z,101203.94
2022-11-29T22:32:19.759Z,101205.77
2022-11-29T22:33:21.837Z,101207.55
2022-11-29T22:34:24.413Z,101213.86
2022-11-29T22:35:27.721Z,101208.59
2022-11-29T22:36:29.972Z,101210.37
2022-11-29T22:37:32.582Z,101209.52
2022-11-29T22:38:35.593Z,101213.13
2022-11-29T22:39:39.805Z,101211.38
2022-11-29T22:40:42.500Z,101213.20
2022-11-29T22:41:48.064Z,101210.59
2022-11-29T22:42:48.617Z,101209.73
2022-11-29T22:43:50.729Z,101215.09
2022-11-29T22:44:53.846Z,101216.80
2022-11-29T22:46:04.498Z,101208.77
2022-11-29T22:47:07.021Z,101201.64
2022-11-29T22:48:10.175Z,101202.56
2022-11-29T22:49:12.297Z,101209.66
2022-11-29T22:50:14.514Z,101211.45
2022-11-29T22:51:19.125Z,101203.42
2022-11-29T22:52:21.283Z,101204.31
2022-11-29T22:53:23.671Z,101206.98
2022-11-29T22:54:25.641Z,101198.96
2022-11-29T22:55:27.733Z,101202.49
2022-11-29T22:56:31.346Z,101200.67
2022-11-29T22:57:33.890Z,101203.34
2022-11-29T22:58:36.609Z,101199.81
2022-11-29T22:59:39.034Z,101195.39
2022-11-29T23:00:41.198Z,101206.02
2022-11-29T23:01:43.535Z,101194.39
2022-11-29T23:02:45.816Z,101196.14
2022-11-29T23:03:51.163Z,101197.92
2022-11-29T23:04:54.133Z,101200.59
2022-11-29T23:05:59.905Z,101194.39
2022-11-29T23:07:02.059Z,101193.53
2022-11-29T23:08:04.507Z,101198.88
2022-11-29T23:10:28.767Z,101194.83
2022-11-29T23:11:30.912Z,101196.21
2022-11-29T23:12:32.928Z,101194.39
2022-11-29T23:13:36.523Z,101197.14
2022-11-29T23:14:38.727Z,101193.61
2022-11-29T23:15:40.826Z,101201.56
2022-11-29T23:16:43.154Z,101196.21
2022-11-29T23:17:45.269Z,101196.21
2022-11-29T23:18:47.583Z,101197.14
2022-11-29T23:19:49.539Z,101195.32
2022-11-29T23:20:51.751Z,101195.32
2022-11-29T23:21:54.919Z,101199.74
2022-11-29T23:22:57.009Z,101191.79
2022-11-29T23:23:59.315Z,101193.61
2022-11-29T23:25:02.724Z,101193.53
2022-11-29T23:26:06.161Z,101192.64
2022-11-29T23:27:08.296Z,101189.97
2022-11-29T23:28:10.375Z,101197.06
2022-11-29T23:29:14.711Z,101189.97
2022-11-29T23:30:17.442Z,101194.47
2022-11-29T23:31:19.983Z,101196.21
2022-11-29T23:32:22.197Z,101197.14
2022-11-29T23:33:24.407Z,101190.93
2022-11-29T23:34:27.396Z,101191.79
2022-11-29T23:35:30.102Z,101194.47
2022-11-29T23:36:33.088Z,101191.86
2022-11-29T23:37:35.162Z,101196.28
2022-11-29T23:38:37.532Z,101200.75
2022-11-29T23:39:39.641Z,101199.03
2022-11-29T23:40:43.214Z,101197.22
2022-11-29T23:41:45.555Z,101198.96
2022-11-29T23:42:51.403Z,101197.22
2022-11-29T23:43:54.449Z,101202.56
2022-11-29T23:44:56.533Z,101192.80
2022-11-29T23:45:59.582Z,101195.47
2022-11-29T23:47:02.047Z,101198.22
2022-11-29T23:48:04.902Z,101192.94
2022-11-29T23:49:08.024Z,101200.11
2022-11-29T23:50:10.971Z,101202.83
2022-11-29T23:51:13.736Z,101202.90
2022-11-29T23:52:16.451Z,101201.11
2022-11-29T23:53:18.771Z,101202.90
2022-11-29T23:54:20.871Z,101209.18
2022-11-29T23:55:23.695Z,101203.88
2022-11-29T23:56:26.902Z,101202.09
2022-11-29T23:57:29.925Z,101206.55
2022-11-29T23:58:32.353Z,101204.77
2022-11-29T23:59:34.453Z,101215.46
